ADDS METAR Data INFO
IDs: Format: Raw Decoded Include TAF

Data at: 2057 UTC 19 Jul 2018

METAR for:KPBI (Palm Beach Intl, FL, US)
Text:KPBI 192053Z 13014KT 10SM SCT040 SCT060 SCT250 32/24 A2996 RMK AO2 SLP146 T03170239 56011 $
Temperature: 31.7°C ( 89°F)
Dewpoint: 23.9°C ( 75°F) [RH = 63%]
Pressure (altimeter):29.96 inches Hg (1014.6 mb) [Sea level pressure: 1014.6 mb]
Winds:from the SE (130 degrees) at 16 MPH (14 knots; 7.2 m/s)
Visibility:10 or more sm (16+ km)
Ceiling:at least 12,000 feet AGL
Clouds: scattered clouds at 4000 feet AGL, scattered clouds at 6000 feet AGL, scattered clouds at 25000 feet AGL
QC Flag:SOME DATA ABOVE MAY BE INACCURATE!!!"$" is an indication the sensor requires maintenance.